sensor_id;sensor_type;location;lat;lon;timestamp;pressure;altitude;pressure_sealevel;temperature;humidity
46944;BME280;32678;43.852;25.952;2023-01-28T00:00:23;100804.22;;;1.99;94.59
46944;BME280;32678;43.852;25.952;2023-01-28T00:05:21;100797.34;;;2.26;93.97
46944;BME280;32678;43.852;25.952;2023-01-28T00:10:18;100806.00;;;2.52;92.86
46944;BME280;32678;43.852;25.952;2023-01-28T00:15:15;100812.06;;;2.48;92.57
46944;BME280;32678;43.852;25.952;2023-01-28T00:20:12;100812.06;;;2.43;92.08
46944;BME280;32678;43.852;25.952;2023-01-28T00:25:10;100815.44;;;2.04;93.15
46944;BME280;32678;43.852;25.952;2023-01-28T00:30:07;100820.63;;;2.13;93.36
46944;BME280;32678;43.852;25.952;2023-01-28T00:35:05;100814.59;;;2.21;93.30
46944;BME280;32678;43.852;25.952;2023-01-28T00:40:02;100811.06;;;1.91;94.59
46944;BME280;32678;43.852;25.952;2023-01-28T00:45:00;100823.97;;;1.87;95.23
46944;BME280;32678;43.852;25.952;2023-01-28T00:49:56;100824.06;;;2.05;93.73
46944;BME280;32678;43.852;25.952;2023-01-28T00:54:53;100834.38;;;1.94;94.62
46944;BME280;32678;43.852;25.952;2023-01-28T00:59:50;100832.59;;;1.84;95.11
46944;BME280;32678;43.852;25.952;2023-01-28T01:04:47;100832.69;;;2.25;94.20
46944;BME280;32678;43.852;25.952;2023-01-28T01:09:54;100840.53;;;2.52;92.71
46944;BME280;32678;43.852;25.952;2023-01-28T01:14:52;100837.94;;;2.55;91.54
46944;BME280;32678;43.852;25.952;2023-01-28T01:19:49;100843.06;;;2.24;91.78
46944;BME280;32678;43.852;25.952;2023-01-28T01:24:46;100853.22;;;1.66;93.52
46944;BME280;32678;43.852;25.952;2023-01-28T01:29:43;100855.81;;;1.77;94.78
46944;BME280;32678;43.852;25.952;2023-01-28T01:34:40;100856.69;;;1.71;94.96
46944;BME280;32678;43.852;25.952;2023-01-28T01:39:37;100854.00;;;1.51;94.59
46944;BME280;32678;43.852;25.952;2023-01-28T01:49:49;100860.84;;;1.42;95.76
46944;BME280;32678;43.852;25.952;2023-01-28T01:54:48;100863.59;;;1.75;94.52
46944;BME280;32678;43.852;25.952;2023-01-28T01:59:46;100870.47;;;1.78;94.15
46944;BME280;32678;43.852;25.952;2023-01-28T02:04:43;100873.13;;;1.88;94.35
46944;BME280;32678;43.852;25.952;2023-01-28T02:09:44;100878.28;;;1.85;94.45
46944;BME280;32678;43.852;25.952;2023-01-28T02:14:43;100880.09;;;2.07;93.29
46944;BME280;32678;43.852;25.952;2023-01-28T02:19:42;100883.38;;;1.71;92.58
46944;BME280;32678;43.852;25.952;2023-01-28T02:24:50;100887.44;;;1.28;95.79
46944;BME280;32678;43.852;25.952;2023-01-28T02:29:51;100893.53;;;1.43;95.50
46944;BME280;32678;43.852;25.952;2023-01-28T02:34:55;100897.78;;;1.33;95.34
46944;BME280;32678;43.852;25.952;2023-01-28T02:39:54;100897.81;;;1.35;94.83
46944;BME280;32678;43.852;25.952;2023-01-28T02:44:55;100893.63;;;1.53;94.63
46944;BME280;32678;43.852;25.952;2023-01-28T02:49:52;100902.03;;;1.23;94.86
46944;BME280;32678;43.852;25.952;2023-01-28T02:54:52;100895.34;;;1.53;94.13
46944;BME280;32678;43.852;25.952;2023-01-28T02:59:56;100895.38;;;1.62;93.53
46944;BME280;32678;43.852;25.952;2023-01-28T03:05:01;100897.06;;;1.51;93.49
46944;BME280;32678;43.852;25.952;2023-01-28T03:10:02;100898.84;;;1.67;92.89
46944;BME280;32678;43.852;25.952;2023-01-28T03:15:02;100899.75;;;1.70;92.57
46944;BME280;32678;43.852;25.952;2023-01-28T03:20:19;100909.44;;;2.17;91.69
46944;BME280;32678;43.852;25.952;2023-01-28T03:25:38;100915.53;;;2.34;89.08
46944;BME280;32678;43.852;25.952;2023-01-28T03:30:57;100922.41;;;2.28;88.98
46944;BME280;32678;43.852;25.952;2023-01-28T03:36:18;100925.06;;;2.52;88.55
46944;BME280;32678;43.852;25.952;2023-01-28T03:41:43;100917.31;;;2.64;88.03
46944;BME280;32678;43.852;25.952;2023-01-28T03:46:51;100919.09;;;2.83;86.98
46944;BME280;32678;43.852;25.952;2023-01-28T03:51:48;100915.63;;;2.90;86.31
46944;BME280;32678;43.852;25.952;2023-01-28T03:56:45;100906.97;;;2.61;86.63
46944;BME280;32678;43.852;25.952;2023-01-28T04:01:43;100928.56;;;2.90;86.66
46944;BME280;32678;43.852;25.952;2023-01-28T04:06:41;100928.56;;;2.72;85.67
46944;BME280;32678;43.852;25.952;2023-01-28T04:12:07;100925.94;;;2.69;86.63
46944;BME280;32678;43.852;25.952;2023-01-28T04:17:10;100938.06;;;2.76;86.58
46944;BME280;32678;43.852;25.952;2023-01-28T04:22:09;100939.75;;;2.70;85.88
46944;BME280;32678;43.852;25.952;2023-01-28T04:27:09;100940.66;;;2.78;85.96
46944;BME280;32678;43.852;25.952;2023-01-28T04:32:06;100941.50;;;2.81;85.92
46944;BME280;32678;43.852;25.952;2023-01-28T04:37:24;100943.22;;;2.84;85.24
46944;BME280;32678;43.852;25.952;2023-01-28T04:42:56;100951.88;;;2.87;85.41
46944;BME280;32678;43.852;25.952;2023-01-28T04:48:00;100945.84;;;3.03;84.84
46944;BME280;32678;43.852;25.952;2023-01-28T04:53:21;100950.13;;;2.80;84.86
46944;BME280;32678;43.852;25.952;2023-01-28T04:58:26;100956.16;;;2.72;85.59
46944;BME280;32678;43.852;25.952;2023-01-28T05:03:28;100948.34;;;2.43;86.12
46944;BME280;32678;43.852;25.952;2023-01-28T05:08:26;100954.41;;;2.61;86.90
46944;BME280;32678;43.852;25.952;2023-01-28T05:13:23;100951.00;;;2.78;86.07
46944;BME280;32678;43.852;25.952;2023-01-28T05:18:20;100952.66;;;2.51;86.54
46944;BME280;32678;43.852;25.952;2023-01-28T05:23:30;100948.31;;;2.41;87.03
46944;BME280;32678;43.852;25.952;2023-01-28T05:28:28;100961.25;;;2.41;86.76
46944;BME280;32678;43.852;25.952;2023-01-28T05:33:26;100967.31;;;2.48;86.73
46944;BME280;32678;43.852;25.952;2023-01-28T05:38:23;100970.75;;;2.42;86.63
46944;BME280;32678;43.852;25.952;2023-01-28T05:43:20;100975.97;;;2.60;86.20
46944;BME280;32678;43.852;25.952;2023-01-28T05:48:36;100960.41;;;2.44;86.32
46944;BME280;32678;43.852;25.952;2023-01-28T05:53:53;100994.13;;;2.74;85.94
46944;BME280;32678;43.852;25.952;2023-01-28T05:58:52;101003.59;;;2.69;85.67
46944;BME280;32678;43.852;25.952;2023-01-28T06:03:48;101005.34;;;2.70;86.28
46944;BME280;32678;43.852;25.952;2023-01-28T06:08:47;101009.72;;;2.91;85.68
46944;BME280;32678;43.852;25.952;2023-01-28T06:13:50;101008.88;;;2.96;84.97
46944;BME280;32678;43.852;25.952;2023-01-28T06:18:53;101002.78;;;2.88;85.02
46944;BME280;32678;43.852;25.952;2023-01-28T06:23:50;101014.91;;;2.88;85.03
46944;BME280;32678;43.852;25.952;2023-01-28T06:28:47;101020.00;;;2.59;85.32
46944;BME280;32678;43.852;25.952;2023-01-28T06:33:44;101027.84;;;2.83;85.25
46944;BME280;32678;43.852;25.952;2023-01-28T06:38:41;101023.53;;;2.94;85.39
46944;BME280;32678;43.852;25.952;2023-01-28T06:43:38;101030.44;;;2.92;84.68
46944;BME280;32678;43.852;25.952;2023-01-28T06:48:35;101042.56;;;3.07;84.91
46944;BME280;32678;43.852;25.952;2023-01-28T06:53:31;101059.00;;;3.21;84.18
46944;BME280;32678;43.852;25.952;2023-01-28T06:58:29;101067.63;;;3.17;84.46
46944;BME280;32678;43.852;25.952;2023-01-28T07:03:25;101067.66;;;3.35;84.51
46944;BME280;32678;43.852;25.952;2023-01-28T07:08:22;101072.00;;;3.52;83.95
46944;BME280;32678;43.852;25.952;2023-01-28T07:13:19;101083.22;;;3.67;83.66
46944;BME280;32678;43.852;25.952;2023-01-28T07:18:16;101087.56;;;3.71;83.07
46944;BME280;32678;43.852;25.952;2023-01-28T07:23:13;101091.88;;;3.81;82.63
46944;BME280;32678;43.852;25.952;2023-01-28T07:28:10;101096.19;;;3.87;83.15
46944;BME280;32678;43.852;25.952;2023-01-28T07:33:07;101104.00;;;3.95;83.55
46944;BME280;32678;43.852;25.952;2023-01-28T07:38:05;101115.25;;;3.86;83.14
46944;BME280;32678;43.852;25.952;2023-01-28T07:43:04;101118.69;;;3.92;83.16
46944;BME280;32678;43.852;25.952;2023-01-28T07:48:06;101118.69;;;4.00;83.04
46944;BME280;32678;43.852;25.952;2023-01-28T07:53:04;101119.53;;;4.04;83.41
46944;BME280;32678;43.852;25.952;2023-01-28T07:58:01;101123.00;;;4.06;82.43
46944;BME280;32678;43.852;25.952;2023-01-28T08:02:59;101118.69;;;4.05;82.64
46944;BME280;32678;43.852;25.952;2023-01-28T08:07:56;101126.44;;;4.06;82.81
46944;BME280;32678;43.852;25.952;2023-01-28T08:12:54;101125.63;;;4.00;82.59
46944;BME280;32678;43.852;25.952;2023-01-28T08:17:53;101138.56;;;4.09;82.89
46944;BME280;32678;43.852;25.952;2023-01-28T08:22:50;101145.50;;;3.99;82.43
46944;BME280;32678;43.852;25.952;2023-01-28T08:27:46;101137.72;;;4.04;82.86
46944;BME280;32678;43.852;25.952;2023-01-28T08:32:43;101140.28;;;3.82;82.29
46944;BME280;32678;43.852;25.952;2023-01-28T08:37:41;101143.75;;;3.87;83.04
46944;BME280;32678;43.852;25.952;2023-01-28T08:42:37;101148.91;;;3.72;82.83
46944;BME280;32678;43.852;25.952;2023-01-28T08:47:34;101150.66;;;3.61;83.07
46944;BME280;32678;43.852;25.952;2023-01-28T08:52:31;101151.50;;;3.54;83.87
46944;BME280;32678;43.852;25.952;2023-01-28T08:57:28;101159.25;;;3.49;84.45
46944;BME280;32678;43.852;25.952;2023-01-28T09:02:25;101155.78;;;3.37;84.75
46944;BME280;32678;43.852;25.952;2023-01-28T09:07:27;101157.50;;;3.35;85.39
46944;BME280;32678;43.852;25.952;2023-01-28T09:12:24;101164.41;;;3.34;85.80
46944;BME280;32678;43.852;25.952;2023-01-28T09:17:22;101160.97;;;3.43;86.08
46944;BME280;32678;43.852;25.952;2023-01-28T09:22:19;101165.31;;;3.50;86.03
46944;BME280;32678;43.852;25.952;2023-01-28T09:27:16;101160.16;;;3.56;86.08
46944;BME280;32678;43.852;25.952;2023-01-28T09:32:13;101150.63;;;3.55;85.38
46944;BME280;32678;43.852;25.952;2023-01-28T09:37:10;101152.38;;;3.59;85.50
46944;BME280;32678;43.852;25.952;2023-01-28T09:42:23;101159.28;;;3.63;85.15
46944;BME280;32678;43.852;25.952;2023-01-28T09:47:26;101159.28;;;3.60;84.48
46944;BME280;32678;43.852;25.952;2023-01-28T09:52:26;101161.03;;;3.61;84.98
46944;BME280;32678;43.852;25.952;2023-01-28T09:57:26;101159.28;;;3.56;85.35
46944;BME280;32678;43.852;25.952;2023-01-28T10:02:29;101161.00;;;3.54;85.63
46944;BME280;32678;43.852;25.952;2023-01-28T10:07:33;101166.22;;;3.57;85.77
46944;BME280;32678;43.852;25.952;2023-01-28T10:17:50;101173.97;;;3.51;85.64
46944;BME280;32678;43.852;25.952;2023-01-28T10:23:10;101178.25;;;3.47;85.73
46944;BME280;32678;43.852;25.952;2023-01-28T10:28:10;101154.91;;;3.32;86.03
46944;BME280;32678;43.852;25.952;2023-01-28T10:33:12;101170.44;;;3.29;86.00
46944;BME280;32678;43.852;25.952;2023-01-28T10:38:13;101179.91;;;3.24;86.04
46944;BME280;32678;43.852;25.952;2023-01-28T10:43:10;101176.47;;;3.29;86.73
46944;BME280;32678;43.852;25.952;2023-01-28T10:48:08;101174.78;;;3.36;86.78
46944;BME280;32678;43.852;25.952;2023-01-28T10:53:09;101183.47;;;3.55;86.27
46944;BME280;32678;43.852;25.952;2023-01-28T10:58:10;101176.59;;;3.57;85.46
46944;BME280;32678;43.852;25.952;2023-01-28T11:03:15;101181.78;;;3.61;85.20
46944;BME280;32678;43.852;25.952;2023-01-28T11:08:14;101173.09;;;3.62;85.11
46944;BME280;32678;43.852;25.952;2023-01-28T11:13:15;101167.97;;;3.71;85.41
46944;BME280;32678;43.852;25.952;2023-01-28T11:18:14;101172.28;;;3.66;85.22
46944;BME280;32678;43.852;25.952;2023-01-28T11:23:17;101171.38;;;3.67;85.07
46944;BME280;32678;43.852;25.952;2023-01-28T11:28:16;101171.41;;;3.61;85.24
46944;BME280;32678;43.852;25.952;2023-01-28T11:33:14;101161.03;;;3.64;84.87
46944;BME280;32678;43.852;25.952;2023-01-28T11:38:15;101153.91;;;2.99;85.57
46944;BME280;32678;43.852;25.952;2023-01-28T11:43:16;101152.09;;;2.80;88.77
46944;BME280;32678;43.852;25.952;2023-01-28T11:48:16;101152.88;;;2.64;89.66
46944;BME280;32678;43.852;25.952;2023-01-28T11:53:27;101154.56;;;2.56;89.79
46944;BME280;32678;43.852;25.952;2023-01-28T11:58:30;101135.53;;;2.49;90.52
46944;BME280;32678;43.852;25.952;2023-01-28T12:03:38;101150.13;;;2.34;91.11
46944;BME280;32678;43.852;25.952;2023-01-28T12:08:41;101158.63;;;2.19;92.54
46944;BME280;32678;43.852;25.952;2023-01-28T12:13:45;101155.88;;;2.01;93.10
46944;BME280;32678;43.852;25.952;2023-01-28T12:18:50;101153.31;;;2.01;94.10
46944;BME280;32678;43.852;25.952;2023-01-28T12:23:55;101154.25;;;2.12;94.49
46944;BME280;32678;43.852;25.952;2023-01-28T12:28:59;101152.53;;;2.09;94.20
46944;BME280;32678;43.852;25.952;2023-01-28T12:34:01;101156.78;;;2.03;95.05
46944;BME280;32678;43.852;25.952;2023-01-28T12:39:06;101159.28;;;1.92;95.06
46944;BME280;32678;43.852;25.952;2023-01-28T12:44:09;101155.81;;;1.90;95.56
46944;BME280;32678;43.852;25.952;2023-01-28T12:49:08;101156.66;;;1.88;95.79
46944;BME280;32678;43.852;25.952;2023-01-28T12:54:11;101163.59;;;1.90;96.98
46944;BME280;32678;43.852;25.952;2023-01-28T12:59:13;101175.78;;;2.05;95.21
46944;BME280;32678;43.852;25.952;2023-01-28T13:04:15;101176.47;;;1.87;96.85
46944;BME280;32678;43.852;25.952;2023-01-28T13:09:15;101189.38;;;1.84;96.67
46944;BME280;32678;43.852;25.952;2023-01-28T13:14:13;101193.06;;;2.13;95.12
46944;BME280;32678;43.852;25.952;2023-01-28T13:19:20;101180.91;;;2.00;95.51
46944;BME280;32678;43.852;25.952;2023-01-28T13:24:19;101181.72;;;1.98;95.91
46944;BME280;32678;43.852;25.952;2023-01-28T13:29:18;101179.03;;;1.87;96.84
46944;BME280;32678;43.852;25.952;2023-01-28T13:34:26;101180.75;;;1.84;96.83
46944;BME280;32678;43.852;25.952;2023-01-28T13:39:25;101184.41;;;2.08;96.80
46944;BME280;32678;43.852;25.952;2023-01-28T13:44:29;101186.09;;;2.06;96.47
46944;BME280;32678;43.852;25.952;2023-01-28T13:49:27;101193.84;;;2.00;97.43
46944;BME280;32678;43.852;25.952;2023-01-28T13:54:30;101195.75;;;2.24;98.25
46944;BME280;32678;43.852;25.952;2023-01-28T13:59:35;101193.31;;;2.47;95.74
46944;BME280;32678;43.852;25.952;2023-01-28T14:04:40;101200.09;;;2.31;94.77
46944;BME280;32678;43.852;25.952;2023-01-28T14:09:46;101206.19;;;2.36;95.99
46944;BME280;32678;43.852;25.952;2023-01-28T14:15:10;101206.38;;;2.65;94.99
46944;BME280;32678;43.852;25.952;2023-01-28T14:20:14;101211.53;;;2.59;93.39
46944;BME280;32678;43.852;25.952;2023-01-28T14:25:14;101215.84;;;2.60;95.10
46944;BME280;32678;43.852;25.952;2023-01-28T14:30:17;101217.69;;;2.79;94.76
46944;BME280;32678;43.852;25.952;2023-01-28T14:35:17;101219.53;;;2.98;93.12
46944;BME280;32678;43.852;25.952;2023-01-28T14:40:15;101214.41;;;3.14;92.38
46944;BME280;32678;43.852;25.952;2023-01-28T14:45:17;101224.81;;;3.23;91.61
46944;BME280;32678;43.852;25.952;2023-01-28T14:50:19;101220.56;;;3.31;91.18
46944;BME280;32678;43.852;25.952;2023-01-28T14:55:24;101224.88;;;3.35;89.65
46944;BME280;32678;43.852;25.952;2023-01-28T15:00:25;101227.22;;;2.82;90.13
46944;BME280;32678;43.852;25.952;2023-01-28T15:05:24;101233.97;;;2.58;92.23
46944;BME280;32678;43.852;25.952;2023-01-28T15:10:23;101240.81;;;2.49;92.96
46944;BME280;32678;43.852;25.952;2023-01-28T15:15:27;101240.81;;;2.49;93.76
46944;BME280;32678;43.852;25.952;2023-01-28T15:20:25;101241.56;;;2.34;94.83
46944;BME280;32678;43.852;25.952;2023-01-28T15:25:25;101249.31;;;2.36;95.18
46944;BME280;32678;43.852;25.952;2023-01-28T15:30:28;101246.75;;;2.39;94.91
46944;BME280;32678;43.852;25.952;2023-01-28T15:35:26;101249.22;;;2.27;96.12
46944;BME280;32678;43.852;25.952;2023-01-28T15:40:38;101253.59;;;2.35;95.86
46944;BME280;32678;43.852;25.952;2023-01-28T15:45:36;101250.09;;;2.24;96.90
46944;BME280;32678;43.852;25.952;2023-01-28T15:50:43;101262.13;;;2.19;96.61
46944;BME280;32678;43.852;25.952;2023-01-28T15:55:41;101267.31;;;2.22;96.68
46944;BME280;32678;43.852;25.952;2023-01-28T16:00:38;101267.13;;;2.02;97.51
46944;BME280;32678;43.852;25.952;2023-01-28T16:05:36;101270.75;;;2.20;97.02
46944;BME280;32678;43.852;25.952;2023-01-28T16:10:34;101274.19;;;2.18;98.06
46944;BME280;32678;43.852;25.952;2023-01-28T16:15:31;101280.97;;;2.07;97.55
46944;BME280;32678;43.852;25.952;2023-01-28T16:20:29;101263.66;;;2.02;98.23
46944;BME280;32678;43.852;25.952;2023-01-28T16:25:28;101283.69;;;2.20;97.47
46944;BME280;32678;43.852;25.952;2023-01-28T16:30:27;101290.53;;;2.14;97.93
46944;BME280;32678;43.852;25.952;2023-01-28T16:35:25;101293.22;;;2.27;97.69
46944;BME280;32678;43.852;25.952;2023-01-28T16:40:45;101297.59;;;2.34;97.63
46944;BME280;32678;43.852;25.952;2023-01-28T16:45:46;101301.91;;;2.35;96.87
46944;BME280;32678;43.852;25.952;2023-01-28T16:50:43;101310.44;;;2.23;97.76
46944;BME280;32678;43.852;25.952;2023-01-28T16:55:40;101309.59;;;2.26;97.80
46944;BME280;32678;43.852;25.952;2023-01-28T17:00:37;101314.81;;;2.29;97.24
46944;BME280;32678;43.852;25.952;2023-01-28T17:05:34;101293.97;;;2.13;97.97
46944;BME280;32678;43.852;25.952;2023-01-28T17:10:31;101324.34;;;2.36;96.75
46944;BME280;32678;43.852;25.952;2023-01-28T17:15:28;101322.53;;;2.27;96.76
46944;BME280;32678;43.852;25.952;2023-01-28T17:20:26;101328.53;;;2.23;96.94
46944;BME280;32678;43.852;25.952;2023-01-28T17:25:24;101331.91;;;2.16;97.67
46944;BME280;32678;43.852;25.952;2023-01-28T17:30:28;101333.66;;;2.20;98.52
46944;BME280;32678;43.852;25.952;2023-01-28T17:35:50;101337.25;;;2.31;97.36
46944;BME280;32678;43.852;25.952;2023-01-28T17:40:55;101339.75;;;2.25;97.24
46944;BME280;32678;43.852;25.952;2023-01-28T17:45:56;101345.81;;;2.24;98.21
46944;BME280;32678;43.852;25.952;2023-01-28T17:50:54;101350.06;;;2.19;98.12
46944;BME280;32678;43.852;25.952;2023-01-28T17:55:52;101343.25;;;2.30;97.90
46944;BME280;32678;43.852;25.952;2023-01-28T18:00:49;101352.00;;;2.38;97.16
46944;BME280;32678;43.852;25.952;2023-01-28T18:05:55;101352.75;;;2.28;97.87
46944;BME280;32678;43.852;25.952;2023-01-28T18:10:53;101354.38;;;2.22;98.02
46944;BME280;32678;43.852;25.952;2023-01-28T18:15:50;101352.91;;;2.43;97.38
46944;BME280;32678;43.852;25.952;2023-01-28T18:20:54;101358.13;;;2.48;96.43
46944;BME280;32678;43.852;25.952;2023-01-28T18:26:02;101360.41;;;2.21;97.69
46944;BME280;32678;43.852;25.952;2023-01-28T18:31:15;101359.53;;;2.18;97.82
46944;BME280;32678;43.852;25.952;2023-01-28T18:36:13;101368.13;;;2.14;98.49
46944;BME280;32678;43.852;25.952;2023-01-28T18:41:11;101375.00;;;2.15;98.74
46944;BME280;32678;43.852;25.952;2023-01-28T18:46:11;101370.81;;;2.24;98.11
46944;BME280;32678;43.852;25.952;2023-01-28T18:51:10;101366.50;;;2.26;98.59
46944;BME280;32678;43.852;25.952;2023-01-28T18:56:26;101369.78;;;2.09;98.30
46944;BME280;32678;43.852;25.952;2023-01-28T19:01:23;101369.84;;;2.15;98.06
46944;BME280;32678;43.852;25.952;2023-01-28T19:06:20;101370.66;;;2.11;98.48
46944;BME280;32678;43.852;25.952;2023-01-28T19:11:17;101371.41;;;2.00;99.51
46944;BME280;32678;43.852;25.952;2023-01-28T19:16:16;101370.75;;;2.21;98.70
46944;BME280;32678;43.852;25.952;2023-01-28T19:21:12;101378.47;;;2.14;98.77
46944;BME280;32678;43.852;25.952;2023-01-28T19:26:12;101377.56;;;2.12;98.85
46944;BME280;32678;43.852;25.952;2023-01-28T19:31:38;101381.16;;;2.24;99.38
46944;BME280;32678;43.852;25.952;2023-01-28T19:36:35;101384.53;;;2.18;98.25
46944;BME280;32678;43.852;25.952;2023-01-28T19:41:32;101376.84;;;2.23;97.80
46944;BME280;32678;43.852;25.952;2023-01-28T19:46:30;101384.44;;;2.09;98.81
46944;BME280;32678;43.852;25.952;2023-01-28T19:51:30;101383.03;;;2.38;98.68
46944;BME280;32678;43.852;25.952;2023-01-28T19:56:27;101382.81;;;2.20;98.45
46944;BME280;32678;43.852;25.952;2023-01-28T20:01:28;101388.06;;;2.25;98.37
46944;BME280;32678;43.852;25.952;2023-01-28T20:06:28;101389.84;;;2.29;98.18
46944;BME280;32678;43.852;25.952;2023-01-28T20:11:28;101398.50;;;2.32;97.77
46944;BME280;32678;43.852;25.952;2023-01-28T20:16:27;101401.91;;;2.28;97.89
46944;BME280;32678;43.852;25.952;2023-01-28T20:21:26;101394.25;;;2.37;97.59
46944;BME280;32678;43.852;25.952;2023-01-28T20:26:46;101403.81;;;2.46;97.29
46944;BME280;32678;43.852;25.952;2023-01-28T20:31:43;101406.47;;;2.52;96.87
46944;BME280;32678;43.852;25.952;2023-01-28T20:36:40;101405.34;;;2.27;97.06
46944;BME280;32678;43.852;25.952;2023-01-28T20:41:39;101409.78;;;2.39;97.60
46944;BME280;32678;43.852;25.952;2023-01-28T20:46:39;101411.59;;;2.47;96.60
46944;BME280;32678;43.852;25.952;2023-01-28T20:51:36;101414.16;;;2.44;96.87
46944;BME280;32678;43.852;25.952;2023-01-28T20:56:34;101420.19;;;2.43;96.90
46944;BME280;32678;43.852;25.952;2023-01-28T21:01:32;101424.53;;;2.47;96.36
46944;BME280;32678;43.852;25.952;2023-01-28T21:06:31;101425.44;;;2.51;95.07
46944;BME280;32678;43.852;25.952;2023-01-28T21:11:28;101421.97;;;2.49;95.69
46944;BME280;32678;43.852;25.952;2023-01-28T21:16:25;101434.03;;;2.48;95.90
46944;BME280;32678;43.852;25.952;2023-01-28T21:21:24;101430.66;;;2.54;95.56
46944;BME280;32678;43.852;25.952;2023-01-28T21:26:22;101417.47;;;2.30;94.98
46944;BME280;32678;43.852;25.952;2023-01-28T21:31:19;101419.16;;;2.28;95.79
46944;BME280;32678;43.852;25.952;2023-01-28T21:36:16;101441.84;;;2.53;95.71
46944;BME280;32678;43.852;25.952;2023-01-28T21:41:13;101443.66;;;2.58;95.11
46944;BME280;32678;43.852;25.952;2023-01-28T21:46:10;101436.59;;;2.44;95.54
46944;BME280;32678;43.852;25.952;2023-01-28T21:51:07;101442.69;;;2.50;95.72
46944;BME280;32678;43.852;25.952;2023-01-28T21:56:22;101440.13;;;2.52;95.39
46944;BME280;32678;43.852;25.952;2023-01-28T22:01:20;101446.22;;;2.60;94.89
46944;BME280;32678;43.852;25.952;2023-01-28T22:06:17;101440.97;;;2.51;95.11
46944;BME280;32678;43.852;25.952;2023-01-28T22:11:13;101447.06;;;2.56;95.03
46944;BME280;32678;43.852;25.952;2023-01-28T22:16:10;101454.91;;;2.65;94.48
46944;BME280;32678;43.852;25.952;2023-01-28T22:21:09;101455.75;;;2.61;94.45
46944;BME280;32678;43.852;25.952;2023-01-28T22:26:07;101453.16;;;2.61;94.92
46944;BME280;32678;43.852;25.952;2023-01-28T22:31:04;101450.50;;;2.56;94.65
46944;BME280;32678;43.852;25.952;2023-01-28T22:36:03;101450.31;;;2.40;94.53
46944;BME280;32678;43.852;25.952;2023-01-28T22:41:04;101449.47;;;2.41;95.30
46944;BME280;32678;43.852;25.952;2023-01-28T22:46:01;101444.19;;;2.32;95.14
46944;BME280;32678;43.852;25.952;2023-01-28T22:51:01;101445.69;;;2.10;97.05
46944;BME280;32678;43.852;25.952;2023-01-28T22:55:58;101428.50;;;2.16;97.00
46944;BME280;32678;43.852;25.952;2023-01-28T23:00:56;101445.00;;;2.25;96.83
46944;BME280;32678;43.852;25.952;2023-01-28T23:05:56;101446.66;;;2.21;96.39
46944;BME280;32678;43.852;25.952;2023-01-28T23:10:53;101443.25;;;2.24;96.72
46944;BME280;32678;43.852;25.952;2023-01-28T23:15:52;101453.69;;;2.31;95.39
46944;BME280;32678;43.852;25.952;2023-01-28T23:21:08;101444.72;;;2.03;98.09
46944;BME280;32678;43.852;25.952;2023-01-28T23:26:28;101454.41;;;2.20;97.50
46944;BME280;32678;43.852;25.952;2023-01-28T23:31:25;101463.09;;;2.26;97.42
46944;BME280;32678;43.852;25.952;2023-01-28T23:36:23;101463.69;;;2.05;97.61
46944;BME280;32678;43.852;25.952;2023-01-28T23:41:19;101461.94;;;2.00;97.77
46944;BME280;32678;43.852;25.952;2023-01-28T23:46:16;101465.41;;;2.03;99.01
46944;BME280;32678;43.852;25.952;2023-01-28T23:51:18;101448.25;;;2.11;97.91
46944;BME280;32678;43.852;25.952;2023-01-28T23:56:16;101468.28;;;2.25;97.75
